sensor_id;sensor_type;location;lat;lon;timestamp;temperature;humidity
21176;DHT22;10746;50.178;8.186;2023-04-03T00:01:26;2.40;99.90
21176;DHT22;10746;50.178;8.186;2023-04-03T00:03:54;2.40;99.90
21176;DHT22;10746;50.178;8.186;2023-04-03T00:06:21;2.40;99.90
21176;DHT22;10746;50.178;8.186;2023-04-03T00:08:48;2.40;99.90
21176;DHT22;10746;50.178;8.186;2023-04-03T00:11:17;2.40;99.90
21176;DHT22;10746;50.178;8.186;2023-04-03T00:13:45;2.40;99.90
21176;DHT22;10746;50.178;8.186;2023-04-03T00:16:11;2.40;99.90
21176;DHT22;10746;50.178;8.186;2023-04-03T00:18:39;2.40;99.90
21176;DHT22;10746;50.178;8.186;2023-04-03T00:21:06;2.50;99.90
21176;DHT22;10746;50.178;8.186;2023-04-03T00:23:34;2.50;99.90
21176;DHT22;10746;50.178;8.186;2023-04-03T00:26:01;2.50;99.90
21176;DHT22;10746;50.178;8.186;2023-04-03T00:28:29;2.50;99.90
21176;DHT22;10746;50.178;8.186;2023-04-03T00:30:56;2.50;99.90
21176;DHT22;10746;50.178;8.186;2023-04-03T00:33:24;2.50;99.90
21176;DHT22;10746;50.178;8.186;2023-04-03T00:35:51;2.50;99.90
21176;DHT22;10746;50.178;8.186;2023-04-03T00:38:18;2.50;99.90
21176;DHT22;10746;50.178;8.186;2023-04-03T00:40:47;2.50;99.90
21176;DHT22;10746;50.178;8.186;2023-04-03T00:43:16;2.50;99.90
21176;DHT22;10746;50.178;8.186;2023-04-03T00:45:46;2.50;99.90
21176;DHT22;10746;50.178;8.186;2023-04-03T00:48:17;2.50;99.90
21176;DHT22;10746;50.178;8.186;2023-04-03T00:50:45;2.50;99.90
21176;DHT22;10746;50.178;8.186;2023-04-03T00:53:15;2.50;99.90
21176;DHT22;10746;50.178;8.186;2023-04-03T00:55:43;2.50;99.90
21176;DHT22;10746;50.178;8.186;2023-04-03T00:58:12;2.50;99.90
21176;DHT22;10746;50.178;8.186;2023-04-03T01:00:44;2.50;99.90
21176;DHT22;10746;50.178;8.186;2023-04-03T01:03:13;2.50;99.90
21176;DHT22;10746;50.178;8.186;2023-04-03T01:05:40;2.50;99.90
21176;DHT22;10746;50.178;8.186;2023-04-03T01:08:07;2.50;99.90
21176;DHT22;10746;50.178;8.186;2023-04-03T01:10:34;2.50;99.90
21176;DHT22;10746;50.178;8.186;2023-04-03T01:13:00;2.60;99.90
21176;DHT22;10746;50.178;8.186;2023-04-03T01:15:28;2.60;99.90
21176;DHT22;10746;50.178;8.186;2023-04-03T01:17:57;2.60;99.90
21176;DHT22;10746;50.178;8.186;2023-04-03T01:23:45;2.60;99.90
21176;DHT22;10746;50.178;8.186;2023-04-03T01:26:13;2.60;99.90
21176;DHT22;10746;50.178;8.186;2023-04-03T01:28:40;2.60;99.90
21176;DHT22;10746;50.178;8.186;2023-04-03T01:31:14;2.60;99.90
21176;DHT22;10746;50.178;8.186;2023-04-03T01:33:43;2.60;99.90
21176;DHT22;10746;50.178;8.186;2023-04-03T01:36:14;2.60;99.90
21176;DHT22;10746;50.178;8.186;2023-04-03T01:38:41;2.50;99.90
21176;DHT22;10746;50.178;8.186;2023-04-03T01:41:07;2.50;99.90
21176;DHT22;10746;50.178;8.186;2023-04-03T01:43:34;2.50;99.90
21176;DHT22;10746;50.178;8.186;2023-04-03T01:46:01;2.50;99.90
21176;DHT22;10746;50.178;8.186;2023-04-03T01:48:28;2.50;99.90
21176;DHT22;10746;50.178;8.186;2023-04-03T01:50:56;2.50;99.90
21176;DHT22;10746;50.178;8.186;2023-04-03T01:53:22;2.50;99.90
21176;DHT22;10746;50.178;8.186;2023-04-03T01:55:49;2.50;99.90
21176;DHT22;10746;50.178;8.186;2023-04-03T01:58:16;2.40;99.90
21176;DHT22;10746;50.178;8.186;2023-04-03T02:00:43;2.50;99.90
21176;DHT22;10746;50.178;8.186;2023-04-03T02:03:09;2.40;99.90
21176;DHT22;10746;50.178;8.186;2023-04-03T02:05:36;2.50;99.90
21176;DHT22;10746;50.178;8.186;2023-04-03T02:08:05;2.50;99.90
21176;DHT22;10746;50.178;8.186;2023-04-03T02:10:32;2.50;99.90
21176;DHT22;10746;50.178;8.186;2023-04-03T02:12:59;2.40;99.90
21176;DHT22;10746;50.178;8.186;2023-04-03T02:15:25;2.40;99.90
21176;DHT22;10746;50.178;8.186;2023-04-03T02:17:52;2.30;99.90
21176;DHT22;10746;50.178;8.186;2023-04-03T02:20:19;2.40;99.90
21176;DHT22;10746;50.178;8.186;2023-04-03T02:22:46;2.30;99.90
21176;DHT22;10746;50.178;8.186;2023-04-03T02:25:15;2.30;99.90
21176;DHT22;10746;50.178;8.186;2023-04-03T02:27:43;2.30;99.90
21176;DHT22;10746;50.178;8.186;2023-04-03T02:30:10;2.30;99.90
21176;DHT22;10746;50.178;8.186;2023-04-03T02:32:38;2.40;99.90
21176;DHT22;10746;50.178;8.186;2023-04-03T02:35:06;2.30;99.90
21176;DHT22;10746;50.178;8.186;2023-04-03T02:37:32;2.30;99.90
21176;DHT22;10746;50.178;8.186;2023-04-03T02:40:00;2.30;99.90
21176;DHT22;10746;50.178;8.186;2023-04-03T02:42:28;2.30;99.90
21176;DHT22;10746;50.178;8.186;2023-04-03T02:44:54;2.30;99.90
21176;DHT22;10746;50.178;8.186;2023-04-03T02:47:21;2.30;99.90
21176;DHT22;10746;50.178;8.186;2023-04-03T02:49:48;2.30;99.90
21176;DHT22;10746;50.178;8.186;2023-04-03T02:52:15;2.30;99.90
21176;DHT22;10746;50.178;8.186;2023-04-03T02:54:42;2.30;99.90
21176;DHT22;10746;50.178;8.186;2023-04-03T02:57:08;2.30;99.90
21176;DHT22;10746;50.178;8.186;2023-04-03T02:59:37;2.30;99.90
21176;DHT22;10746;50.178;8.186;2023-04-03T03:02:06;2.20;99.90
21176;DHT22;10746;50.178;8.186;2023-04-03T03:04:33;2.10;99.90
21176;DHT22;10746;50.178;8.186;2023-04-03T03:06:59;2.10;99.90
21176;DHT22;10746;50.178;8.186;2023-04-03T03:09:26;2.10;99.90
21176;DHT22;10746;50.178;8.186;2023-04-03T03:11:53;2.10;99.90
21176;DHT22;10746;50.178;8.186;2023-04-03T03:14:20;2.00;99.90
21176;DHT22;10746;50.178;8.186;2023-04-03T03:16:48;2.00;99.90
21176;DHT22;10746;50.178;8.186;2023-04-03T03:19:15;2.00;99.90
21176;DHT22;10746;50.178;8.186;2023-04-03T03:21:42;2.00;99.90
21176;DHT22;10746;50.178;8.186;2023-04-03T03:24:09;2.00;99.90
21176;DHT22;10746;50.178;8.186;2023-04-03T03:26:37;2.00;99.90
21176;DHT22;10746;50.178;8.186;2023-04-03T03:29:04;2.00;99.90
21176;DHT22;10746;50.178;8.186;2023-04-03T03:31:30;2.00;99.90
21176;DHT22;10746;50.178;8.186;2023-04-03T03:33:58;2.00;99.90
21176;DHT22;10746;50.178;8.186;2023-04-03T03:36:25;2.00;99.90
21176;DHT22;10746;50.178;8.186;2023-04-03T03:38:52;1.90;99.90
21176;DHT22;10746;50.178;8.186;2023-04-03T03:41:19;1.90;99.90
21176;DHT22;10746;50.178;8.186;2023-04-03T03:43:46;1.90;99.90
21176;DHT22;10746;50.178;8.186;2023-04-03T03:46:12;1.80;99.90
21176;DHT22;10746;50.178;8.186;2023-04-03T03:48:39;1.80;99.90
21176;DHT22;10746;50.178;8.186;2023-04-03T03:51:07;1.80;99.90
21176;DHT22;10746;50.178;8.186;2023-04-03T03:53:34;1.70;99.90
21176;DHT22;10746;50.178;8.186;2023-04-03T03:56:02;1.60;99.90
21176;DHT22;10746;50.178;8.186;2023-04-03T03:58:29;1.60;99.90
21176;DHT22;10746;50.178;8.186;2023-04-03T04:00:56;1.60;99.90
21176;DHT22;10746;50.178;8.186;2023-04-03T04:03:23;1.50;99.90
21176;DHT22;10746;50.178;8.186;2023-04-03T04:05:49;1.50;99.90
21176;DHT22;10746;50.178;8.186;2023-04-03T04:08:18;1.50;99.90
21176;DHT22;10746;50.178;8.186;2023-04-03T04:10:44;1.50;99.90
21176;DHT22;10746;50.178;8.186;2023-04-03T04:13:11;1.50;99.90
21176;DHT22;10746;50.178;8.186;2023-04-03T04:15:38;1.40;99.90
21176;DHT22;10746;50.178;8.186;2023-04-03T04:18:05;1.40;99.90
21176;DHT22;10746;50.178;8.186;2023-04-03T04:20:32;1.30;99.90
21176;DHT22;10746;50.178;8.186;2023-04-03T04:22:59;1.30;99.90
21176;DHT22;10746;50.178;8.186;2023-04-03T04:25:27;1.30;99.90
21176;DHT22;10746;50.178;8.186;2023-04-03T04:27:53;1.30;99.90
21176;DHT22;10746;50.178;8.186;2023-04-03T04:30:20;1.30;99.90
21176;DHT22;10746;50.178;8.186;2023-04-03T04:32:47;1.30;99.90
21176;DHT22;10746;50.178;8.186;2023-04-03T04:35:14;1.30;99.90
21176;DHT22;10746;50.178;8.186;2023-04-03T04:37:41;1.30;99.90
21176;DHT22;10746;50.178;8.186;2023-04-03T04:40:08;1.20;99.90
21176;DHT22;10746;50.178;8.186;2023-04-03T04:42:37;1.20;99.90
21176;DHT22;10746;50.178;8.186;2023-04-03T04:45:04;1.20;99.90
21176;DHT22;10746;50.178;8.186;2023-04-03T04:47:31;1.20;99.90
21176;DHT22;10746;50.178;8.186;2023-04-03T04:49:57;1.10;99.90
21176;DHT22;10746;50.178;8.186;2023-04-03T04:52:24;1.10;99.90
21176;DHT22;10746;50.178;8.186;2023-04-03T04:54:51;1.00;99.90
21176;DHT22;10746;50.178;8.186;2023-04-03T04:57:18;0.90;99.90
21176;DHT22;10746;50.178;8.186;2023-04-03T04:59:46;0.80;99.90
21176;DHT22;10746;50.178;8.186;2023-04-03T05:02:12;0.80;99.90
21176;DHT22;10746;50.178;8.186;2023-04-03T05:04:39;0.80;99.90
21176;DHT22;10746;50.178;8.186;2023-04-03T05:07:06;0.80;99.90
21176;DHT22;10746;50.178;8.186;2023-04-03T05:09:33;0.70;99.90
21176;DHT22;10746;50.178;8.186;2023-04-03T05:12:00;0.70;99.90
21176;DHT22;10746;50.178;8.186;2023-04-03T05:14:28;0.70;99.90
21176;DHT22;10746;50.178;8.186;2023-04-03T05:16:56;0.60;99.90
21176;DHT22;10746;50.178;8.186;2023-04-03T05:19:23;0.60;99.90
21176;DHT22;10746;50.178;8.186;2023-04-03T05:21:50;0.50;99.90
21176;DHT22;10746;50.178;8.186;2023-04-03T05:24:17;0.50;99.90
21176;DHT22;10746;50.178;8.186;2023-04-03T05:26:44;0.50;99.90
21176;DHT22;10746;50.178;8.186;2023-04-03T05:29:10;0.50;99.90
21176;DHT22;10746;50.178;8.186;2023-04-03T05:31:37;0.40;99.90
21176;DHT22;10746;50.178;8.186;2023-04-03T05:34:05;0.50;99.90
21176;DHT22;10746;50.178;8.186;2023-04-03T05:36:32;0.50;99.90
21176;DHT22;10746;50.178;8.186;2023-04-03T05:38:59;0.40;99.90
21176;DHT22;10746;50.178;8.186;2023-04-03T05:41:26;0.40;99.90
21176;DHT22;10746;50.178;8.186;2023-04-03T05:43:52;0.40;99.90
21176;DHT22;10746;50.178;8.186;2023-04-03T05:46:19;0.30;99.90
21176;DHT22;10746;50.178;8.186;2023-04-03T05:48:47;0.40;99.90
21176;DHT22;10746;50.178;8.186;2023-04-03T05:51:17;0.30;99.90
21176;DHT22;10746;50.178;8.186;2023-04-03T05:53:45;0.30;99.90
21176;DHT22;10746;50.178;8.186;2023-04-03T05:56:13;0.40;99.90
21176;DHT22;10746;50.178;8.186;2023-04-03T05:58:40;0.50;99.90
21176;DHT22;10746;50.178;8.186;2023-04-03T06:01:06;0.60;99.90
21176;DHT22;10746;50.178;8.186;2023-04-03T06:03:33;0.70;99.90
21176;DHT22;10746;50.178;8.186;2023-04-03T06:06:03;0.80;99.90
21176;DHT22;10746;50.178;8.186;2023-04-03T06:08:31;0.90;99.90
21176;DHT22;10746;50.178;8.186;2023-04-03T06:10:59;0.60;99.90
21176;DHT22;10746;50.178;8.186;2023-04-03T06:13:28;0.40;99.90
21176;DHT22;10746;50.178;8.186;2023-04-03T06:15:55;0.40;99.90
21176;DHT22;10746;50.178;8.186;2023-04-03T06:18:22;0.40;99.90
21176;DHT22;10746;50.178;8.186;2023-04-03T06:20:49;0.50;99.90
21176;DHT22;10746;50.178;8.186;2023-04-03T06:23:16;0.60;99.90
21176;DHT22;10746;50.178;8.186;2023-04-03T06:25:44;0.80;99.90
21176;DHT22;10746;50.178;8.186;2023-04-03T06:28:11;0.90;99.90
21176;DHT22;10746;50.178;8.186;2023-04-03T06:30:38;0.90;99.90
21176;DHT22;10746;50.178;8.186;2023-04-03T06:33:05;1.00;99.90
21176;DHT22;10746;50.178;8.186;2023-04-03T06:35:32;1.10;99.90
21176;DHT22;10746;50.178;8.186;2023-04-03T06:38:00;1.10;99.90
21176;DHT22;10746;50.178;8.186;2023-04-03T06:40:27;0.90;99.90
21176;DHT22;10746;50.178;8.186;2023-04-03T06:42:55;0.90;99.90
21176;DHT22;10746;50.178;8.186;2023-04-03T06:45:22;0.90;99.90
21176;DHT22;10746;50.178;8.186;2023-04-03T06:47:50;1.10;99.90
21176;DHT22;10746;50.178;8.186;2023-04-03T06:50:17;1.10;99.90
21176;DHT22;10746;50.178;8.186;2023-04-03T06:52:45;1.40;99.90
21176;DHT22;10746;50.178;8.186;2023-04-03T06:55:12;1.70;99.90
21176;DHT22;10746;50.178;8.186;2023-04-03T06:57:38;1.90;99.90
21176;DHT22;10746;50.178;8.186;2023-04-03T07:00:07;1.70;99.90
21176;DHT22;10746;50.178;8.186;2023-04-03T07:02:35;1.60;99.90
21176;DHT22;10746;50.178;8.186;2023-04-03T07:05:02;1.60;99.90
21176;DHT22;10746;50.178;8.186;2023-04-03T07:07:29;1.40;99.90
21176;DHT22;10746;50.178;8.186;2023-04-03T07:09:56;1.50;99.90
21176;DHT22;10746;50.178;8.186;2023-04-03T07:12:22;1.70;99.90
21176;DHT22;10746;50.178;8.186;2023-04-03T07:14:49;1.80;99.90
21176;DHT22;10746;50.178;8.186;2023-04-03T07:17:17;2.20;99.90
21176;DHT22;10746;50.178;8.186;2023-04-03T07:19:44;2.40;99.90
21176;DHT22;10746;50.178;8.186;2023-04-03T07:22:11;2.40;99.90
21176;DHT22;10746;50.178;8.186;2023-04-03T07:24:38;2.50;99.90
21176;DHT22;10746;50.178;8.186;2023-04-03T07:27:05;2.20;99.90
21176;DHT22;10746;50.178;8.186;2023-04-03T07:29:34;1.90;99.90
21176;DHT22;10746;50.178;8.186;2023-04-03T07:32:01;1.90;99.90
21176;DHT22;10746;50.178;8.186;2023-04-03T07:34:29;2.10;99.90
21176;DHT22;10746;50.178;8.186;2023-04-03T07:36:56;2.60;99.90
21176;DHT22;10746;50.178;8.186;2023-04-03T07:39:23;3.10;99.90
21176;DHT22;10746;50.178;8.186;2023-04-03T07:41:50;3.40;99.90
21176;DHT22;10746;50.178;8.186;2023-04-03T07:44:16;3.50;99.90
21176;DHT22;10746;50.178;8.186;2023-04-03T07:46:44;3.20;99.90
21176;DHT22;10746;50.178;8.186;2023-04-03T07:49:10;3.30;99.90
21176;DHT22;10746;50.178;8.186;2023-04-03T07:51:38;3.40;99.90
21176;DHT22;10746;50.178;8.186;2023-04-03T07:54:06;3.50;99.90
21176;DHT22;10746;50.178;8.186;2023-04-03T07:56:33;3.60;99.90
21176;DHT22;10746;50.178;8.186;2023-04-03T07:58:59;4.00;99.90
21176;DHT22;10746;50.178;8.186;2023-04-03T08:01:26;3.20;99.90
21176;DHT22;10746;50.178;8.186;2023-04-03T08:03:53;3.30;99.90
21176;DHT22;10746;50.178;8.186;2023-04-03T08:06:20;3.70;99.90
21176;DHT22;10746;50.178;8.186;2023-04-03T08:08:48;3.90;99.90
21176;DHT22;10746;50.178;8.186;2023-04-03T08:11:15;3.50;99.90
21176;DHT22;10746;50.178;8.186;2023-04-03T08:13:42;3.10;99.90
21176;DHT22;10746;50.178;8.186;2023-04-03T08:16:10;3.30;99.90
21176;DHT22;10746;50.178;8.186;2023-04-03T08:18:37;3.60;99.90
21176;DHT22;10746;50.178;8.186;2023-04-03T08:21:08;3.60;99.90
21176;DHT22;10746;50.178;8.186;2023-04-03T08:23:35;3.80;99.90
21176;DHT22;10746;50.178;8.186;2023-04-03T08:26:07;3.70;99.90
21176;DHT22;10746;50.178;8.186;2023-04-03T08:28:34;3.60;99.90
21176;DHT22;10746;50.178;8.186;2023-04-03T08:31:05;3.20;99.90
21176;DHT22;10746;50.178;8.186;2023-04-03T08:33:32;2.90;99.90
21176;DHT22;10746;50.178;8.186;2023-04-03T08:36:01;2.80;99.90
21176;DHT22;10746;50.178;8.186;2023-04-03T08:38:28;3.00;99.90
21176;DHT22;10746;50.178;8.186;2023-04-03T08:41:14;3.40;99.90
21176;DHT22;10746;50.178;8.186;2023-04-03T08:43:52;3.70;99.90
21176;DHT22;10746;50.178;8.186;2023-04-03T08:46:23;3.10;99.90
21176;DHT22;10746;50.178;8.186;2023-04-03T08:48:52;3.40;99.90
21176;DHT22;10746;50.178;8.186;2023-04-03T08:51:20;3.30;99.90
21176;DHT22;10746;50.178;8.186;2023-04-03T08:53:54;3.30;99.90
21176;DHT22;10746;50.178;8.186;2023-04-03T08:56:25;3.60;99.90
21176;DHT22;10746;50.178;8.186;2023-04-03T08:58:55;3.90;99.90
21176;DHT22;10746;50.178;8.186;2023-04-03T09:01:26;4.20;99.90
21176;DHT22;10746;50.178;8.186;2023-04-03T09:03:53;4.40;99.90
21176;DHT22;10746;50.178;8.186;2023-04-03T09:06:22;4.30;99.90
21176;DHT22;10746;50.178;8.186;2023-04-03T09:08:53;3.80;99.90
21176;DHT22;10746;50.178;8.186;2023-04-03T09:11:33;3.70;99.90
21176;DHT22;10746;50.178;8.186;2023-04-03T09:14:07;3.60;99.90
21176;DHT22;10746;50.178;8.186;2023-04-03T09:16:45;3.80;99.90
21176;DHT22;10746;50.178;8.186;2023-04-03T09:19:34;4.10;99.90
21176;DHT22;10746;50.178;8.186;2023-04-03T09:22:09;4.50;99.90
21176;DHT22;10746;50.178;8.186;2023-04-03T09:24:39;4.20;99.90
21176;DHT22;10746;50.178;8.186;2023-04-03T09:27:10;4.30;99.90
21176;DHT22;10746;50.178;8.186;2023-04-03T09:29:39;3.80;99.90
21176;DHT22;10746;50.178;8.186;2023-04-03T09:32:19;3.60;99.90
21176;DHT22;10746;50.178;8.186;2023-04-03T09:34:48;3.50;99.90
21176;DHT22;10746;50.178;8.186;2023-04-03T09:37:35;3.80;99.90
21176;DHT22;10746;50.178;8.186;2023-04-03T09:40:03;3.90;99.90
21176;DHT22;10746;50.178;8.186;2023-04-03T09:42:32;4.40;99.90
21176;DHT22;10746;50.178;8.186;2023-04-03T09:45:00;4.40;99.90
21176;DHT22;10746;50.178;8.186;2023-04-03T09:47:28;4.90;99.90
21176;DHT22;10746;50.178;8.186;2023-04-03T09:50:20;4.60;99.90
21176;DHT22;10746;50.178;8.186;2023-04-03T09:52:49;4.10;99.90
21176;DHT22;10746;50.178;8.186;2023-04-03T09:55:19;4.60;99.90
21176;DHT22;10746;50.178;8.186;2023-04-03T09:57:49;4.40;99.90
21176;DHT22;10746;50.178;8.186;2023-04-03T10:00:23;4.60;99.90
21176;DHT22;10746;50.178;8.186;2023-04-03T10:02:52;4.90;99.90
21176;DHT22;10746;50.178;8.186;2023-04-03T10:05:33;5.00;99.90
21176;DHT22;10746;50.178;8.186;2023-04-03T10:08:19;4.60;99.90
21176;DHT22;10746;50.178;8.186;2023-04-03T10:10:48;4.40;99.90
21176;DHT22;10746;50.178;8.186;2023-04-03T10:13:33;4.30;99.90
21176;DHT22;10746;50.178;8.186;2023-04-03T10:16:03;4.00;99.90
21176;DHT22;10746;50.178;8.186;2023-04-03T10:18:39;3.80;99.90
21176;DHT22;10746;50.178;8.186;2023-04-03T10:21:13;3.70;99.90
21176;DHT22;10746;50.178;8.186;2023-04-03T10:23:45;3.80;99.90
21176;DHT22;10746;50.178;8.186;2023-04-03T10:26:19;3.80;99.90
21176;DHT22;10746;50.178;8.186;2023-04-03T10:28:56;3.80;99.90
21176;DHT22;10746;50.178;8.186;2023-04-03T10:31:29;4.20;99.90
21176;DHT22;10746;50.178;8.186;2023-04-03T10:34:02;4.40;99.90
21176;DHT22;10746;50.178;8.186;2023-04-03T10:36:37;4.20;99.90
21176;DHT22;10746;50.178;8.186;2023-04-03T10:39:13;4.30;99.90
21176;DHT22;10746;50.178;8.186;2023-04-03T10:41:52;4.50;99.90
21176;DHT22;10746;50.178;8.186;2023-04-03T10:44:30;4.40;99.90
21176;DHT22;10746;50.178;8.186;2023-04-03T10:47:02;4.30;99.90
21176;DHT22;10746;50.178;8.186;2023-04-03T10:49:43;4.50;99.90
21176;DHT22;10746;50.178;8.186;2023-04-03T10:52:17;5.20;99.90
21176;DHT22;10746;50.178;8.186;2023-04-03T10:54:55;4.80;99.90
21176;DHT22;10746;50.178;8.186;2023-04-03T10:57:23;4.70;99.90
21176;DHT22;10746;50.178;8.186;2023-04-03T10:59:56;4.50;99.90
21176;DHT22;10746;50.178;8.186;2023-04-03T11:02:26;4.40;99.90
21176;DHT22;10746;50.178;8.186;2023-04-03T11:04:56;4.60;99.90
21176;DHT22;10746;50.178;8.186;2023-04-03T11:07:27;4.90;99.90
21176;DHT22;10746;50.178;8.186;2023-04-03T11:10:02;5.00;99.90
21176;DHT22;10746;50.178;8.186;2023-04-03T11:12:35;5.30;99.90
21176;DHT22;10746;50.178;8.186;2023-04-03T11:15:10;5.60;99.90
21176;DHT22;10746;50.178;8.186;2023-04-03T11:17:41;5.30;99.90
21176;DHT22;10746;50.178;8.186;2023-04-03T11:20:17;5.20;99.90
21176;DHT22;10746;50.178;8.186;2023-04-03T11:22:47;5.60;99.90
21176;DHT22;10746;50.178;8.186;2023-04-03T11:25:19;5.80;99.90
21176;DHT22;10746;50.178;8.186;2023-04-03T11:27:51;5.70;99.90
21176;DHT22;10746;50.178;8.186;2023-04-03T11:30:23;6.00;99.90
21176;DHT22;10746;50.178;8.186;2023-04-03T11:33:12;6.40;99.90
21176;DHT22;10746;50.178;8.186;2023-04-03T11:35:43;6.10;99.90
21176;DHT22;10746;50.178;8.186;2023-04-03T11:38:18;6.30;99.90
21176;DHT22;10746;50.178;8.186;2023-04-03T11:40:47;6.80;99.90
21176;DHT22;10746;50.178;8.186;2023-04-03T11:43:26;6.90;99.90
21176;DHT22;10746;50.178;8.186;2023-04-03T11:45:57;7.30;99.90
21176;DHT22;10746;50.178;8.186;2023-04-03T11:48:50;7.70;99.90
21176;DHT22;10746;50.178;8.186;2023-04-03T11:51:39;7.30;99.90
21176;DHT22;10746;50.178;8.186;2023-04-03T11:54:35;7.00;99.90
21176;DHT22;10746;50.178;8.186;2023-04-03T12:06:47;7.70;99.90
21176;DHT22;10746;50.178;8.186;2023-04-03T12:09:27;7.30;99.90
21176;DHT22;10746;50.178;8.186;2023-04-03T12:11:55;7.60;99.90
21176;DHT22;10746;50.178;8.186;2023-04-03T12:14:24;6.70;99.90
21176;DHT22;10746;50.178;8.186;2023-04-03T12:16:53;6.80;99.90
21176;DHT22;10746;50.178;8.186;2023-04-03T12:19:35;7.30;99.90
21176;DHT22;10746;50.178;8.186;2023-04-03T12:22:15;8.20;99.90
21176;DHT22;10746;50.178;8.186;2023-04-03T12:24:43;8.60;99.90
21176;DHT22;10746;50.178;8.186;2023-04-03T12:27:28;8.90;99.90
21176;DHT22;10746;50.178;8.186;2023-04-03T12:32:57;9.40;99.90
21176;DHT22;10746;50.178;8.186;2023-04-03T12:35:34;9.50;99.90
21176;DHT22;10746;50.178;8.186;2023-04-03T12:41:25;7.90;99.90
21176;DHT22;10746;50.178;8.186;2023-04-03T12:44:16;7.90;99.90
21176;DHT22;10746;50.178;8.186;2023-04-03T12:46:45;7.40;99.90
21176;DHT22;10746;50.178;8.186;2023-04-03T12:49:24;7.50;99.90
21176;DHT22;10746;50.178;8.186;2023-04-03T12:51:56;6.90;99.90
21176;DHT22;10746;50.178;8.186;2023-04-03T12:54:29;6.70;99.90
21176;DHT22;10746;50.178;8.186;2023-04-03T12:57:10;7.00;99.90
21176;DHT22;10746;50.178;8.186;2023-04-03T12:59:37;7.30;99.90
21176;DHT22;10746;50.178;8.186;2023-04-03T13:02:17;7.60;99.90
21176;DHT22;10746;50.178;8.186;2023-04-03T13:04:44;8.10;99.90
21176;DHT22;10746;50.178;8.186;2023-04-03T13:07:21;7.80;99.90
21176;DHT22;10746;50.178;8.186;2023-04-03T13:09:59;7.80;99.90
21176;DHT22;10746;50.178;8.186;2023-04-03T13:12:26;7.90;99.90
21176;DHT22;10746;50.178;8.186;2023-04-03T13:14:55;8.90;99.90
21176;DHT22;10746;50.178;8.186;2023-04-03T13:17:22;8.30;99.90
21176;DHT22;10746;50.178;8.186;2023-04-03T13:19:49;8.30;99.90
21176;DHT22;10746;50.178;8.186;2023-04-03T13:22:28;8.00;99.90
21176;DHT22;10746;50.178;8.186;2023-04-03T13:24:59;8.20;99.90
21176;DHT22;10746;50.178;8.186;2023-04-03T13:27:29;9.10;99.90
21176;DHT22;10746;50.178;8.186;2023-04-03T13:29:59;8.70;99.90
21176;DHT22;10746;50.178;8.186;2023-04-03T13:32:29;8.90;99.90
21176;DHT22;10746;50.178;8.186;2023-04-03T13:34:56;8.40;99.90
21176;DHT22;10746;50.178;8.186;2023-04-03T13:37:27;8.70;99.90
21176;DHT22;10746;50.178;8.186;2023-04-03T13:40:01;8.70;99.90
21176;DHT22;10746;50.178;8.186;2023-04-03T13:42:29;7.40;99.90
21176;DHT22;10746;50.178;8.186;2023-04-03T13:45:10;7.30;99.90
21176;DHT22;10746;50.178;8.186;2023-04-03T13:47:40;8.10;99.90
21176;DHT22;10746;50.178;8.186;2023-04-03T13:50:16;7.40;99.90
21176;DHT22;10746;50.178;8.186;2023-04-03T13:52:47;7.80;99.90
21176;DHT22;10746;50.178;8.186;2023-04-03T13:55:21;8.70;99.90
21176;DHT22;10746;50.178;8.186;2023-04-03T13:57:51;8.90;99.90
21176;DHT22;10746;50.178;8.186;2023-04-03T14:00:29;8.40;99.90
21176;DHT22;10746;50.178;8.186;2023-04-03T14:02:56;8.40;99.90
21176;DHT22;10746;50.178;8.186;2023-04-03T14:05:23;8.50;99.90
21176;DHT22;10746;50.178;8.186;2023-04-03T14:07:53;8.30;99.90
21176;DHT22;10746;50.178;8.186;2023-04-03T14:10:21;7.10;99.90
21176;DHT22;10746;50.178;8.186;2023-04-03T14:12:48;7.00;99.90
21176;DHT22;10746;50.178;8.186;2023-04-03T14:15:20;6.90;99.90
21176;DHT22;10746;50.178;8.186;2023-04-03T14:17:49;7.60;99.90
21176;DHT22;10746;50.178;8.186;2023-04-03T14:20:19;8.30;99.90
21176;DHT22;10746;50.178;8.186;2023-04-03T14:22:47;7.40;99.90
21176;DHT22;10746;50.178;8.186;2023-04-03T14:25:16;7.60;99.90
21176;DHT22;10746;50.178;8.186;2023-04-03T14:27:44;7.60;99.90
21176;DHT22;10746;50.178;8.186;2023-04-03T14:30:15;7.30;99.90
21176;DHT22;10746;50.178;8.186;2023-04-03T14:32:42;7.70;99.90
21176;DHT22;10746;50.178;8.186;2023-04-03T14:35:09;7.20;99.90
21176;DHT22;10746;50.178;8.186;2023-04-03T14:37:36;7.80;99.90
21176;DHT22;10746;50.178;8.186;2023-04-03T14:40:05;7.90;99.90
21176;DHT22;10746;50.178;8.186;2023-04-03T14:42:35;7.90;99.90
21176;DHT22;10746;50.178;8.186;2023-04-03T14:45:04;7.50;99.90
21176;DHT22;10746;50.178;8.186;2023-04-03T14:47:32;7.60;99.90
21176;DHT22;10746;50.178;8.186;2023-04-03T14:49:59;7.10;99.90
21176;DHT22;10746;50.178;8.186;2023-04-03T14:52:28;7.60;99.90
21176;DHT22;10746;50.178;8.186;2023-04-03T14:54:56;8.40;99.90
21176;DHT22;10746;50.178;8.186;2023-04-03T14:57:25;8.20;99.90
21176;DHT22;10746;50.178;8.186;2023-04-03T14:59:54;7.30;99.90
21176;DHT22;10746;50.178;8.186;2023-04-03T15:02:29;7.20;99.90
21176;DHT22;10746;50.178;8.186;2023-04-03T15:04:57;7.60;99.90
21176;DHT22;10746;50.178;8.186;2023-04-03T15:07:26;7.40;99.90
21176;DHT22;10746;50.178;8.186;2023-04-03T15:09:53;7.50;99.90
21176;DHT22;10746;50.178;8.186;2023-04-03T15:12:21;7.70;99.90
21176;DHT22;10746;50.178;8.186;2023-04-03T15:14:48;7.80;99.90
21176;DHT22;10746;50.178;8.186;2023-04-03T15:17:19;8.00;99.90
21176;DHT22;10746;50.178;8.186;2023-04-03T15:19:46;8.00;99.90
21176;DHT22;10746;50.178;8.186;2023-04-03T15:22:14;8.00;99.90
21176;DHT22;10746;50.178;8.186;2023-04-03T15:24:41;8.00;99.90
21176;DHT22;10746;50.178;8.186;2023-04-03T15:27:08;7.70;99.90
21176;DHT22;10746;50.178;8.186;2023-04-03T15:29:36;7.80;99.90
21176;DHT22;10746;50.178;8.186;2023-04-03T15:32:03;7.30;99.90
21176;DHT22;10746;50.178;8.186;2023-04-03T15:34:31;7.20;99.90
21176;DHT22;10746;50.178;8.186;2023-04-03T15:36:58;7.20;99.90
21176;DHT22;10746;50.178;8.186;2023-04-03T15:39:25;7.10;99.90
21176;DHT22;10746;50.178;8.186;2023-04-03T15:41:52;6.70;99.90
21176;DHT22;10746;50.178;8.186;2023-04-03T15:44:20;6.90;99.90
21176;DHT22;10746;50.178;8.186;2023-04-03T15:46:47;6.30;99.90
21176;DHT22;10746;50.178;8.186;2023-04-03T15:49:16;6.30;99.90
21176;DHT22;10746;50.178;8.186;2023-04-03T15:51:45;6.40;99.90
21176;DHT22;10746;50.178;8.186;2023-04-03T15:54:12;7.40;99.90
21176;DHT22;10746;50.178;8.186;2023-04-03T15:56:41;7.60;99.90
21176;DHT22;10746;50.178;8.186;2023-04-03T15:59:07;7.00;99.90
21176;DHT22;10746;50.178;8.186;2023-04-03T16:01:34;7.40;99.90
21176;DHT22;10746;50.178;8.186;2023-04-03T16:04:03;7.40;99.90
21176;DHT22;10746;50.178;8.186;2023-04-03T16:06:30;6.50;99.90
21176;DHT22;10746;50.178;8.186;2023-04-03T16:09:00;6.20;99.90
21176;DHT22;10746;50.178;8.186;2023-04-03T16:11:27;6.20;99.90
21176;DHT22;10746;50.178;8.186;2023-04-03T16:13:54;5.90;99.90
21176;DHT22;10746;50.178;8.186;2023-04-03T16:16:22;5.80;99.90
21176;DHT22;10746;50.178;8.186;2023-04-03T16:18:49;6.00;99.90